createdAt,value
2023-02-16T00:01:19.948Z,-0.48
2023-02-16T00:03:47.694Z,-0.49
2023-02-16T00:06:16.947Z,-0.50
2023-02-16T00:08:45.976Z,-0.54
2023-02-16T00:11:35.760Z,-0.58
2023-02-16T00:14:04.027Z,-0.57
2023-02-16T00:16:31.683Z,-0.54
2023-02-16T00:18:59.375Z,-0.51
2023-02-16T00:21:28.334Z,-0.51
2023-02-16T00:23:55.948Z,-0.52
2023-02-16T00:26:25.459Z,-0.52
2023-02-16T00:28:55.053Z,-0.52
2023-02-16T00:31:27.166Z,-0.58
2023-02-16T00:33:55.108Z,-0.60
2023-02-16T00:36:22.714Z,-0.59
2023-02-16T00:38:51.780Z,-0.62
2023-02-16T00:41:39.478Z,-0.62
2023-02-16T00:44:07.760Z,-0.65
2023-02-16T00:46:35.433Z,-0.65
2023-02-16T00:49:04.054Z,-0.66
2023-02-16T00:51:31.665Z,-0.68
2023-02-16T00:54:00.643Z,-0.71
2023-02-16T00:56:28.256Z,-0.67
2023-02-16T00:58:55.885Z,-0.65
2023-02-16T01:01:25.422Z,-0.66
2023-02-16T01:03:53.058Z,-0.67
2023-02-16T01:06:38.135Z,-0.71
2023-02-16T01:09:31.699Z,-0.71
2023-02-16T01:11:59.476Z,-0.73
2023-02-16T01:14:27.451Z,-0.78
2023-02-16T01:16:55.085Z,-0.79
2023-02-16T01:19:22.729Z,-0.82
2023-02-16T01:21:50.320Z,-0.87
2023-02-16T01:24:19.257Z,-0.91
2023-02-16T01:26:50.234Z,-0.91
2023-02-16T01:29:19.663Z,-0.88
2023-02-16T01:31:47.464Z,-0.86
2023-02-16T01:34:15.346Z,-0.88
2023-02-16T01:36:44.274Z,-0.91
2023-02-16T01:39:13.542Z,-0.94
2023-02-16T01:41:58.186Z,-0.93
2023-02-16T01:44:28.759Z,-0.92
2023-02-16T01:47:01.063Z,-0.94
2023-02-16T01:49:28.708Z,-0.95
2023-02-16T01:51:58.795Z,-0.96
2023-02-16T01:54:33.963Z,-0.99
2023-02-16T01:57:06.050Z,-1.00
2023-02-16T01:59:42.120Z,-1.07
2023-02-16T02:02:16.547Z,-1.10
2023-02-16T02:05:04.285Z,-1.07
2023-02-16T02:07:37.849Z,-1.06
2023-02-16T02:10:10.318Z,-1.06
2023-02-16T02:12:46.818Z,-1.06
2023-02-16T02:15:14.763Z,-1.05
2023-02-16T02:17:42.564Z,-1.05
2023-02-16T02:20:15.155Z,-1.05
2023-02-16T02:23:18.307Z,-1.04
2023-02-16T02:26:16.514Z,-1.02
2023-02-16T02:28:49.356Z,-1.01
2023-02-16T02:31:23.064Z,-1.01
2023-02-16T02:33:58.205Z,-1.02
2023-02-16T02:36:29.928Z,-1.03
2023-02-16T02:39:05.624Z,-1.05
2023-02-16T02:41:50.930Z,-1.06
2023-02-16T02:44:22.399Z,-1.13
2023-02-16T02:46:50.031Z,-1.17
2023-02-16T02:49:17.744Z,-1.23
2023-02-16T02:51:45.320Z,-1.27
2023-02-16T02:54:33.128Z,-1.30
2023-02-16T02:57:19.515Z,-1.30
2023-02-16T03:00:09.142Z,-1.32
2023-02-16T03:02:37.033Z,-1.30
2023-02-16T03:05:07.332Z,-1.29
2023-02-16T03:07:50.588Z,-1.28
2023-02-16T03:10:38.177Z,-1.29
2023-02-16T03:13:07.710Z,-1.28
2023-02-16T03:15:37.377Z,-1.25
2023-02-16T03:18:24.252Z,-1.25
2023-02-16T03:21:09.590Z,-1.24
2023-02-16T03:23:56.118Z,-1.27
2023-02-16T03:26:41.947Z,-1.29
2023-02-16T03:29:21.419Z,-1.29
2023-02-16T03:31:51.099Z,-1.28
2023-02-16T03:34:20.020Z,-1.27
2023-02-16T03:36:49.736Z,-1.29
2023-02-16T03:39:17.956Z,-1.29
2023-02-16T03:41:48.170Z,-1.32
2023-02-16T03:44:16.110Z,-1.32
2023-02-16T03:46:44.099Z,-1.37
2023-02-16T03:49:13.919Z,-1.38
2023-02-16T03:51:41.533Z,-1.44
2023-02-16T03:54:09.159Z,-1.44
2023-02-16T03:56:36.763Z,-1.48
2023-02-16T03:59:04.666Z,-1.47
2023-02-16T04:01:32.322Z,-1.49
2023-02-16T04:03:59.967Z,-1.50
2023-02-16T04:06:28.921Z,-1.52
2023-02-16T04:08:56.554Z,-1.52
2023-02-16T04:11:41.848Z,-1.53
2023-02-16T04:14:09.443Z,-1.56
2023-02-16T04:16:37.076Z,-1.57
2023-02-16T04:19:06.210Z,-1.56
2023-02-16T04:21:35.403Z,-1.56
2023-02-16T04:24:05.703Z,-1.57
2023-02-16T04:26:33.469Z,-1.56
2023-02-16T04:29:01.091Z,-1.57
2023-02-16T04:31:28.722Z,-1.61
2023-02-16T04:33:56.427Z,-1.60
2023-02-16T04:36:23.989Z,-1.59
2023-02-16T04:38:52.966Z,-1.58
2023-02-16T04:41:20.613Z,-1.59
2023-02-16T04:43:48.209Z,-1.59
2023-02-16T04:46:15.849Z,-1.60
2023-02-16T04:48:43.484Z,-1.60
2023-02-16T04:51:11.104Z,-1.60
2023-02-16T04:53:38.705Z,-1.60
2023-02-16T04:56:10.553Z,-1.59
2023-02-16T04:58:38.224Z,-1.58
2023-02-16T05:01:06.218Z,-1.58
2023-02-16T05:03:34.135Z,-1.59
2023-02-16T05:06:01.957Z,-1.60
2023-02-16T05:08:29.819Z,-1.62
2023-02-16T05:11:15.254Z,-1.61
2023-02-16T05:14:01.972Z,-1.61
2023-02-16T05:16:29.976Z,-1.59
2023-02-16T05:18:58.798Z,-1.63
2023-02-16T05:21:32.374Z,-1.63
2023-02-16T05:24:00.421Z,-1.65
2023-02-16T05:26:28.194Z,-1.66
2023-02-16T05:28:57.218Z,-1.67
2023-02-16T05:31:25.481Z,-1.63
2023-02-16T05:33:53.423Z,-1.57
2023-02-16T05:36:21.227Z,-1.53
2023-02-16T05:38:48.846Z,-1.46
2023-02-16T05:41:23.466Z,-1.41
2023-02-16T05:43:52.384Z,-1.39
2023-02-16T05:46:22.109Z,-1.37
2023-02-16T05:48:50.090Z,-1.32
2023-02-16T05:51:17.873Z,-1.29
2023-02-16T05:53:45.656Z,-1.27
2023-02-16T05:56:13.634Z,-1.25
2023-02-16T05:58:41.486Z,-1.27
2023-02-16T06:01:09.160Z,-1.29
2023-02-16T06:03:38.211Z,-1.28
2023-02-16T06:06:06.955Z,-1.28
2023-02-16T06:08:34.869Z,-1.28
2023-02-16T06:11:02.938Z,-1.28
2023-02-16T06:13:30.713Z,-1.27
2023-02-16T06:15:58.474Z,-1.27
2023-02-16T06:18:26.792Z,-1.25
2023-02-16T06:20:57.895Z,-1.20
2023-02-16T06:23:25.568Z,-1.20
2023-02-16T06:25:53.185Z,-1.23
2023-02-16T06:28:20.775Z,-1.24
2023-02-16T06:30:48.363Z,-1.24
2023-02-16T06:33:15.946Z,-1.25
2023-02-16T06:35:44.059Z,-1.24
2023-02-16T06:38:12.964Z,-1.28
2023-02-16T06:40:40.575Z,-1.32
2023-02-16T06:43:08.175Z,-1.30
2023-02-16T06:45:35.772Z,-1.28
2023-02-16T06:48:03.358Z,-1.24
2023-02-16T06:50:30.919Z,-1.20
2023-02-16T06:52:58.486Z,-1.17
2023-02-16T06:55:27.418Z,-1.12
2023-02-16T06:57:55.108Z,-1.06
2023-02-16T07:00:23.261Z,-1.02
2023-02-16T07:02:51.260Z,-0.96
2023-02-16T07:05:19.078Z,-0.89
2023-02-16T07:07:46.684Z,-0.81
2023-02-16T07:10:14.393Z,-0.75
2023-02-16T07:12:43.364Z,-0.69
2023-02-16T07:15:11.403Z,-0.63
2023-02-16T07:17:39.187Z,-0.54
2023-02-16T07:20:08.090Z,-0.49
2023-02-16T07:22:35.782Z,-0.42
2023-02-16T07:25:03.379Z,-0.34
2023-02-16T07:27:30.994Z,-0.26
2023-02-16T07:29:59.987Z,-0.17
2023-02-16T07:32:27.672Z,-0.09
2023-02-16T07:34:55.395Z,-0.02
2023-02-16T07:37:22.989Z,0.07
2023-02-16T07:39:50.612Z,0.14
2023-02-16T07:42:18.184Z,0.24
2023-02-16T07:44:45.804Z,0.32
2023-02-16T07:47:15.408Z,0.37
2023-02-16T07:49:43.034Z,0.41
2023-02-16T07:52:10.626Z,0.47
2023-02-16T07:54:38.296Z,0.55
2023-02-16T07:57:05.921Z,0.78
2023-02-16T07:59:33.761Z,0.95
2023-02-16T08:02:01.448Z,1.10
2023-02-16T08:04:30.451Z,1.20
2023-02-16T08:06:58.332Z,1.30
2023-02-16T08:09:26.085Z,1.39
2023-02-16T08:11:53.699Z,1.55
2023-02-16T08:14:21.315Z,1.73
2023-02-16T08:16:51.421Z,1.93
2023-02-16T08:19:21.204Z,2.15
2023-02-16T08:21:51.659Z,2.34
2023-02-16T08:24:19.276Z,2.49
2023-02-16T08:26:49.773Z,2.65
2023-02-16T08:29:18.647Z,2.76
2023-02-16T08:31:47.130Z,2.89
2023-02-16T08:34:15.802Z,3.02
2023-02-16T08:36:45.530Z,3.17
2023-02-16T08:39:16.486Z,3.22
2023-02-16T08:41:45.038Z,3.34
2023-02-16T08:44:13.753Z,3.53
2023-02-16T08:46:42.984Z,3.73
2023-02-16T08:49:11.752Z,3.89
2023-02-16T08:51:42.361Z,4.04
2023-02-16T08:54:10.974Z,4.13
2023-02-16T08:56:39.919Z,4.22
2023-02-16T08:59:07.536Z,4.35
2023-02-16T09:01:35.915Z,4.47
2023-02-16T09:04:03.611Z,4.60
2023-02-16T09:06:31.219Z,4.79
2023-02-16T09:08:59.146Z,5.01
2023-02-16T09:11:27.772Z,5.14
2023-02-16T09:13:57.447Z,5.33
2023-02-16T09:16:27.929Z,5.54
2023-02-16T09:18:57.276Z,5.76
2023-02-16T09:21:26.909Z,5.86
2023-02-16T09:23:56.504Z,5.95
2023-02-16T09:26:25.880Z,6.04
2023-02-16T09:28:53.924Z,6.17
2023-02-16T09:31:26.352Z,6.33
2023-02-16T09:33:56.114Z,6.48
2023-02-16T09:36:24.119Z,6.66
2023-02-16T09:38:51.756Z,6.80
2023-02-16T09:41:27.768Z,7.00
2023-02-16T09:43:59.015Z,7.18
2023-02-16T09:46:30.310Z,7.37
2023-02-16T09:48:58.803Z,7.56
2023-02-16T09:51:34.478Z,7.69
2023-02-16T09:54:09.774Z,7.78
2023-02-16T09:56:39.730Z,7.85
2023-02-16T09:59:12.675Z,7.93
2023-02-16T10:01:46.730Z,7.98
2023-02-16T10:04:28.495Z,8.02
2023-02-16T10:07:03.972Z,8.13
2023-02-16T10:09:33.938Z,8.33
2023-02-16T10:12:04.956Z,8.59
2023-02-16T10:14:37.081Z,8.83
2023-02-16T10:17:12.523Z,9.02
2023-02-16T10:19:43.110Z,9.29
2023-02-16T10:22:17.299Z,9.48
2023-02-16T10:24:49.836Z,9.67
2023-02-16T10:27:17.446Z,9.75
2023-02-16T10:29:45.198Z,10.02
2023-02-16T10:32:23.673Z,10.20
2023-02-16T10:34:52.602Z,10.37
2023-02-16T10:37:28.336Z,10.33
2023-02-16T10:40:04.885Z,10.54
2023-02-16T10:42:41.523Z,10.74
2023-02-16T10:45:20.295Z,10.92
2023-02-16T10:47:49.512Z,11.02
2023-02-16T10:50:23.396Z,10.94
2023-02-16T10:52:52.911Z,10.83
2023-02-16T10:55:21.013Z,10.91
2023-02-16T10:57:55.925Z,10.97
2023-02-16T11:00:30.106Z,11.02
2023-02-16T11:03:03.680Z,10.94
2023-02-16T11:05:38.159Z,11.14
2023-02-16T11:08:10.790Z,11.36
2023-02-16T11:10:43.063Z,11.55
2023-02-16T11:13:23.660Z,11.71
2023-02-16T11:15:54.507Z,11.65
2023-02-16T11:18:30.783Z,11.79
2023-02-16T11:20:59.466Z,11.79
2023-02-16T11:23:28.957Z,11.80
2023-02-16T11:25:58.824Z,12.07
2023-02-16T11:28:32.767Z,12.25
2023-02-16T11:31:12.857Z,12.43
2023-02-16T11:33:43.071Z,12.56
2023-02-16T11:36:32.703Z,12.56
2023-02-16T11:39:03.229Z,12.73
2023-02-16T11:41:33.391Z,12.51
2023-02-16T11:44:02.003Z,12.63
2023-02-16T11:46:30.728Z,12.46
2023-02-16T11:49:28.256Z,12.68
2023-02-16T11:51:55.906Z,12.91
2023-02-16T11:54:41.480Z,13.04
2023-02-16T11:57:11.025Z,13.20
2023-02-16T11:59:40.386Z,13.33
2023-02-16T12:02:42.323Z,13.45
2023-02-16T12:05:26.100Z,13.61
2023-02-16T12:08:07.464Z,13.62
2023-02-16T12:10:40.090Z,13.51
2023-02-16T12:13:14.160Z,13.68
2023-02-16T12:15:46.881Z,13.80
2023-02-16T12:18:27.897Z,13.81
2023-02-16T12:21:00.866Z,13.79
2023-02-16T12:23:39.242Z,13.93
2023-02-16T12:26:21.472Z,13.15
2023-02-16T12:28:53.708Z,13.54
2023-02-16T12:31:28.761Z,13.50
2023-02-16T12:34:03.840Z,13.76
2023-02-16T12:36:40.772Z,13.85
2023-02-16T12:39:18.334Z,14.01
2023-02-16T12:41:55.134Z,14.18
2023-02-16T12:44:29.520Z,14.03
2023-02-16T12:47:02.857Z,14.10
2023-02-16T12:49:34.499Z,13.74
2023-02-16T12:52:07.458Z,14.17
2023-02-16T12:54:39.421Z,14.26
2023-02-16T12:57:10.784Z,13.85
2023-02-16T12:59:40.708Z,14.04
2023-02-16T13:02:14.448Z,14.37
2023-02-16T13:04:45.708Z,14.42
2023-02-16T13:07:18.214Z,14.61
2023-02-16T13:09:53.464Z,14.76
2023-02-16T13:12:28.682Z,14.72
2023-02-16T13:15:04.340Z,14.86
2023-02-16T13:17:34.419Z,14.91
2023-02-16T13:20:03.526Z,14.02
2023-02-16T13:22:45.064Z,14.29
2023-02-16T13:25:49.165Z,14.46
2023-02-16T13:28:34.060Z,14.61
2023-02-16T13:31:12.493Z,14.70
2023-02-16T13:33:57.340Z,14.80
2023-02-16T13:36:35.985Z,14.94
2023-02-16T13:39:26.419Z,14.98
2023-02-16T13:42:22.766Z,15.03
2023-02-16T13:44:52.857Z,14.97
2023-02-16T13:47:24.744Z,15.01
2023-02-16T13:49:58.581Z,15.10
2023-02-16T13:52:33.463Z,14.61
2023-02-16T13:55:04.417Z,14.77
2023-02-16T13:58:04.632Z,14.74
2023-02-16T14:00:35.524Z,14.86
2023-02-16T14:03:05.894Z,14.67
2023-02-16T14:05:35.838Z,14.64
2023-02-16T14:08:16.254Z,14.80
2023-02-16T14:11:08.604Z,14.71
2023-02-16T14:13:46.637Z,14.75
2023-02-16T14:16:29.089Z,14.74
2023-02-16T14:18:58.761Z,14.42
2023-02-16T14:21:32.382Z,14.56
2023-02-16T14:24:01.321Z,14.52
2023-02-16T14:26:31.157Z,14.60
2023-02-16T14:29:12.549Z,14.45
2023-02-16T14:31:44.984Z,14.45
2023-02-16T14:34:18.000Z,14.50
2023-02-16T14:37:11.987Z,14.22
2023-02-16T14:40:03.997Z,14.27
2023-02-16T14:42:31.961Z,13.95
2023-02-16T14:45:12.040Z,14.03
2023-02-16T14:47:48.838Z,13.85
2023-02-16T14:50:31.833Z,13.71
2023-02-16T14:53:21.629Z,13.63
2023-02-16T14:56:18.358Z,13.54
2023-02-16T14:58:53.155Z,13.56
2023-02-16T15:01:21.263Z,13.40
2023-02-16T15:03:50.802Z,13.34
2023-02-16T15:06:31.108Z,13.25
2023-02-16T15:09:00.819Z,13.17
2023-02-16T15:11:34.228Z,13.09
2023-02-16T15:14:09.421Z,13.20
2023-02-16T15:16:40.430Z,13.26
2023-02-16T15:19:12.214Z,13.20
2023-02-16T15:21:40.189Z,13.18
2023-02-16T15:24:22.291Z,13.17
2023-02-16T15:26:55.969Z,13.19
2023-02-16T15:29:27.457Z,13.15
2023-02-16T15:31:55.901Z,13.08
2023-02-16T15:34:30.599Z,12.98
2023-02-16T15:36:58.155Z,12.91
2023-02-16T15:39:42.633Z,12.83
2023-02-16T15:42:21.561Z,12.71
2023-02-16T15:44:50.749Z,12.66
2023-02-16T15:47:23.274Z,12.62
2023-02-16T15:49:51.221Z,12.50
2023-02-16T15:52:21.567Z,12.44
2023-02-16T15:54:49.565Z,12.31
2023-02-16T15:57:21.235Z,12.27
2023-02-16T15:59:52.952Z,12.22
2023-02-16T16:02:21.791Z,12.13
2023-02-16T16:04:54.990Z,12.06
2023-02-16T16:07:27.636Z,11.91
2023-02-16T16:09:56.586Z,11.85
2023-02-16T16:12:24.728Z,11.68
2023-02-16T16:14:56.270Z,11.52
2023-02-16T16:17:28.074Z,11.38
2023-02-16T16:19:56.426Z,11.22
2023-02-16T16:22:35.079Z,11.13
2023-02-16T16:25:04.294Z,11.01
2023-02-16T16:27:33.605Z,10.91
2023-02-16T16:30:18.777Z,10.89
2023-02-16T16:32:46.852Z,10.82
2023-02-16T16:35:22.755Z,10.73
2023-02-16T16:37:53.410Z,10.64
2023-02-16T16:40:23.499Z,10.57
2023-02-16T16:43:09.027Z,10.47
2023-02-16T16:45:40.687Z,10.40
2023-02-16T16:48:10.501Z,10.33
2023-02-16T16:50:39.829Z,10.25
2023-02-16T16:53:51.859Z,10.18
2023-02-16T16:56:20.052Z,10.09
2023-02-16T16:58:50.224Z,9.95
2023-02-16T17:01:20.381Z,9.88
2023-02-16T17:03:48.084Z,9.81
2023-02-16T17:06:15.706Z,9.76
2023-02-16T17:08:43.288Z,9.73
2023-02-16T17:11:13.768Z,9.69
2023-02-16T17:13:41.417Z,9.61
2023-02-16T17:16:12.341Z,9.55
2023-02-16T17:18:41.274Z,9.44
2023-02-16T17:21:11.699Z,9.36
2023-02-16T17:23:45.228Z,9.31
2023-02-16T17:26:18.051Z,9.27
2023-02-16T17:28:45.649Z,9.22
2023-02-16T17:31:13.279Z,9.20
2023-02-16T17:33:43.401Z,9.19
2023-02-16T17:36:15.100Z,9.17
2023-02-16T17:38:42.932Z,9.15
2023-02-16T17:41:18.424Z,9.12
2023-02-16T17:43:46.020Z,9.09
2023-02-16T17:46:14.714Z,9.06
2023-02-16T17:48:43.811Z,9.02
2023-02-16T17:51:14.908Z,9.04
2023-02-16T17:53:42.482Z,9.03
2023-02-16T17:56:11.944Z,9.04
2023-02-16T17:58:40.149Z,9.02
2023-02-16T18:01:08.252Z,9.01
2023-02-16T18:03:35.812Z,8.98
2023-02-16T18:06:05.258Z,8.90
2023-02-16T18:08:33.076Z,8.90
2023-02-16T18:11:02.794Z,8.88
2023-02-16T18:13:30.465Z,8.87
2023-02-16T18:15:58.746Z,8.86
2023-02-16T18:18:26.355Z,8.87
2023-02-16T18:20:54.419Z,8.87
2023-02-16T18:23:23.323Z,8.88
2023-02-16T18:25:50.893Z,8.83
2023-02-16T18:28:21.103Z,8.79
2023-02-16T18:30:49.304Z,8.78
2023-02-16T18:33:17.143Z,8.76
2023-02-16T18:35:44.870Z,8.76
2023-02-16T18:38:12.445Z,8.77
2023-02-16T18:40:42.522Z,8.76
2023-02-16T18:43:11.429Z,8.79
2023-02-16T18:45:39.390Z,8.79
2023-02-16T18:48:07.219Z,8.78
2023-02-16T18:50:35.135Z,8.79
2023-02-16T18:53:02.704Z,8.82
2023-02-16T18:55:33.017Z,8.82
2023-02-16T18:58:02.990Z,8.82
2023-02-16T19:00:30.884Z,8.81
2023-02-16T19:02:58.588Z,8.77
2023-02-16T19:05:26.354Z,8.77
2023-02-16T19:07:53.882Z,8.77
2023-02-16T19:10:21.632Z,8.80
2023-02-16T19:12:49.194Z,8.81
2023-02-16T19:15:18.315Z,8.80
2023-02-16T19:17:45.860Z,8.79
2023-02-16T19:20:18.039Z,8.79
2023-02-16T19:22:45.619Z,8.76
2023-02-16T19:25:13.220Z,8.77
2023-02-16T19:27:40.775Z,8.75
2023-02-16T19:30:09.211Z,8.75
2023-02-16T19:32:39.351Z,8.75
2023-02-16T19:35:07.309Z,8.74
2023-02-16T19:37:35.158Z,8.71
2023-02-16T19:40:02.800Z,8.70
2023-02-16T19:42:30.390Z,8.68
2023-02-16T19:44:57.916Z,8.69
2023-02-16T19:47:25.530Z,8.70
2023-02-16T19:49:54.568Z,8.69
2023-02-16T19:52:22.211Z,8.70
2023-02-16T19:54:49.839Z,8.67
2023-02-16T19:57:17.428Z,8.66
2023-02-16T19:59:45.123Z,8.64
2023-02-16T20:02:14.750Z,8.64
2023-02-16T20:04:42.372Z,8.62
2023-02-16T20:07:11.369Z,8.62
2023-02-16T20:09:39.067Z,8.62
2023-02-16T20:12:07.303Z,8.61
2023-02-16T20:14:34.959Z,8.58
2023-02-16T20:17:02.556Z,8.56
2023-02-16T20:19:30.188Z,8.52
2023-02-16T20:21:57.757Z,8.50
2023-02-16T20:24:26.705Z,8.50
2023-02-16T20:26:54.349Z,8.48
2023-02-16T20:29:22.084Z,8.48
2023-02-16T20:31:51.768Z,8.47
2023-02-16T20:34:19.526Z,8.47
2023-02-16T20:36:47.109Z,8.46
2023-02-16T20:39:15.086Z,8.43
2023-02-16T20:41:44.333Z,8.43
2023-02-16T20:44:12.644Z,8.43
2023-02-16T20:46:41.692Z,8.41
2023-02-16T20:49:10.116Z,8.40
2023-02-16T20:51:38.548Z,8.41
2023-02-16T20:54:06.719Z,8.40
2023-02-16T20:56:34.507Z,8.42
2023-02-16T20:59:03.755Z,8.43
2023-02-16T21:01:37.083Z,8.44
2023-02-16T21:04:05.758Z,8.46
2023-02-16T21:06:34.055Z,8.46
2023-02-16T21:09:02.063Z,8.44
2023-02-16T21:11:29.724Z,8.46
2023-02-16T21:13:58.233Z,8.48
2023-02-16T21:16:27.288Z,8.47
2023-02-16T21:18:54.983Z,8.47
2023-02-16T21:21:23.924Z,8.46
2023-02-16T21:23:52.690Z,8.46
2023-02-16T21:26:25.864Z,8.47
2023-02-16T21:28:54.299Z,8.46
2023-02-16T21:31:24.558Z,8.46
2023-02-16T21:33:53.843Z,8.47
2023-02-16T21:36:23.054Z,8.46
2023-02-16T21:38:50.955Z,8.46
2023-02-16T21:41:25.149Z,8.48
2023-02-16T21:43:58.526Z,8.49
2023-02-16T21:46:26.641Z,8.49
2023-02-16T21:48:55.196Z,8.51
2023-02-16T21:51:25.084Z,8.51
2023-02-16T21:53:53.271Z,8.55
2023-02-16T21:56:38.984Z,8.52
2023-02-16T21:59:08.732Z,8.56
2023-02-16T22:01:37.969Z,8.57
2023-02-16T22:04:07.360Z,8.57
2023-02-16T22:06:37.339Z,8.58
2023-02-16T22:09:07.266Z,8.58
2023-02-16T22:11:34.844Z,8.53
2023-02-16T22:14:03.004Z,8.57
2023-02-16T22:16:31.782Z,8.56
2023-02-16T22:19:00.389Z,8.59
2023-02-16T22:21:30.072Z,8.56
2023-02-16T22:24:00.695Z,8.57
2023-02-16T22:26:30.518Z,8.56
2023-02-16T22:28:58.332Z,8.51
2023-02-16T22:31:27.667Z,8.51
2023-02-16T22:33:56.930Z,8.49
2023-02-16T22:36:24.906Z,8.49
2023-02-16T22:38:54.555Z,8.49
2023-02-16T22:41:22.744Z,8.49
2023-02-16T22:43:53.163Z,8.49
2023-02-16T22:46:21.264Z,8.48
2023-02-16T22:48:48.957Z,8.48
2023-02-16T22:51:17.866Z,8.49
2023-02-16T22:53:45.521Z,8.46
2023-02-16T22:56:16.251Z,8.45
2023-02-16T22:58:44.242Z,8.43
2023-02-16T23:01:13.146Z,8.45
2023-02-16T23:03:40.986Z,8.44
2023-02-16T23:06:13.611Z,8.46
2023-02-16T23:08:41.217Z,8.45
2023-02-16T23:11:08.829Z,8.47
2023-02-16T23:13:38.124Z,8.47
2023-02-16T23:16:06.905Z,8.49
2023-02-16T23:18:34.896Z,8.52
2023-02-16T23:21:06.999Z,8.51
2023-02-16T23:23:34.642Z,8.48
2023-02-16T23:26:02.343Z,8.47
2023-02-16T23:28:29.979Z,8.46
2023-02-16T23:30:59.051Z,8.43
2023-02-16T23:33:26.837Z,8.40
2023-02-16T23:35:55.852Z,8.39
2023-02-16T23:38:23.744Z,8.38
2023-02-16T23:40:56.631Z,8.35
2023-02-16T23:43:24.396Z,8.33
2023-02-16T23:45:52.077Z,8.31
2023-02-16T23:48:21.352Z,8.31
2023-02-16T23:50:48.963Z,8.31
2023-02-16T23:53:16.550Z,8.28
2023-02-16T23:55:44.179Z,8.27
2023-02-16T23:58:11.803Z,8.26
